Time;durP1;ratioP1;P1;durP2;ratioP2;P2;SDS_P1;SDS_P2;PMS_P1;PMS_P2;Temp;Humidity;BMP_temperature;BMP_pressure;BME280_temperature;BME280_humidity;BME280_pressure;Samples;Min_cycle;Max_cycle;Signal;HPM_P1;HPM_P2
2021/08/10 00:01:29;;;;;;;4.35;2.58;;;;;;;;;;4934398;29;20079;-65
2021/08/10 00:03:56;;;;;;;2.20;2.00;;;;;;;;;;4934175;29;20062;-65
2021/08/10 00:06:22;;;;;;;4.28;2.40;;;;;;;;;;4934376;29;20087;-65
2021/08/10 00:08:49;;;;;;;5.75;2.28;;;;;;;;;;4934463;29;20138;-65
2021/08/10 00:11:15;;;;;;;4.75;2.17;;;;;;;;;;4934450;29;20126;-65
2021/08/10 00:13:42;;;;;;;4.35;2.50;;;;;;;;;;4924620;29;20080;-65
2021/08/10 00:16:09;;;;;;;5.05;2.35;;;;;;;;;;4915219;29;20124;-65
2021/08/10 00:18:35;;;;;;;5.45;2.40;;;;;;;;;;4915367;29;20154;-65
2021/08/10 00:21:02;;;;;;;4.93;2.55;;;;;;;;;;4915177;29;20333;-65
2021/08/10 00:23:28;;;;;;;7.13;2.80;;;;;;;;;;4915240;29;20617;-65
2021/08/10 00:25:55;;;;;;;4.82;2.83;;;;;;;;;;4915173;29;20091;-64
2021/08/10 00:28:21;;;;;;;3.08;2.00;;;;;;;;;;4915308;29;20052;-65
2021/08/10 00:30:48;;;;;;;6.07;2.80;;;;;;;;;;4915002;29;20136;-65
2021/08/10 00:33:14;;;;;;;6.55;2.50;;;;;;;;;;4924236;29;20052;-65
2021/08/10 00:35:41;;;;;;;3.10;2.25;;;;;;;;;;4937676;29;20570;-65
2021/08/10 00:38:09;;;;;;;5.93;2.45;;;;;;;;;;4937610;29;20094;-65
2021/08/10 00:40:36;;;;;;;3.30;2.35;;;;;;;;;;4937621;29;20087;-65
2021/08/10 00:43:03;;;;;;;3.97;2.00;;;;;;;;;;4917273;29;20122;-65
2021/08/10 00:45:29;;;;;;;4.55;2.17;;;;;;;;;;4918356;29;20098;-65
2021/08/10 00:47:56;;;;;;;5.05;3.05;;;;;;;;;;4918411;29;20052;-65
2021/08/10 00:50:22;;;;;;;7.22;3.17;;;;;;;;;;4918285;29;20080;-65
2021/08/10 00:52:49;;;;;;;4.65;2.75;;;;;;;;;;4918982;29;20091;-65
2021/08/10 00:55:16;;;;;;;3.97;2.60;;;;;;;;;;4919479;29;20503;-65
2021/08/10 00:57:42;;;;;;;4.90;2.38;;;;;;;;;;4917528;29;20098;-66
2021/08/10 01:00:09;;;;;;;3.38;2.60;;;;;;;;;;4916947;29;20479;-65
2021/08/10 01:02:36;;;;;;;4.32;2.80;;;;;;;;;;4918290;29;20052;-65
2021/08/10 01:05:03;;;;;;;3.63;2.22;;;;;;;;;;4918613;29;20138;-64
2021/08/10 01:07:43;;;;;;;6.07;2.88;;;;;;;;;;4917297;29;20083;-64
2021/08/10 01:10:15;;;;;;;7.13;2.70;;;;;;;;;;4916705;29;20080;-65
2021/08/10 01:12:54;;;;;;;4.28;2.80;;;;;;;;;;4917946;29;20134;-65
2021/08/10 01:15:23;;;;;;;2.90;2.42;;;;;;;;;;4935811;29;20083;-65
2021/08/10 01:17:59;;;;;;;5.05;2.63;;;;;;;;;;4920008;29;20051;-65
2021/08/10 01:20:56;;;;;;;2.80;2.53;;;;;;;;;;4935615;29;20094;-65
2021/08/10 01:23:25;;;;;;;5.50;2.75;;;;;;;;;;4935831;29;20134;-65
2021/08/10 01:26:07;;;;;;;4.07;2.70;;;;;;;;;;4919522;29;20511;-65
2021/08/10 01:28:52;;;;;;;3.33;2.33;;;;;;;;;;4919928;29;20116;-65
2021/08/10 01:31:27;;;;;;;5.25;2.67;;;;;;;;;;4936547;29;20051;-65
2021/08/10 01:34:12;;;;;;;4.57;2.90;;;;;;;;;;4927604;29;20088;-65
2021/08/10 01:36:40;;;;;;;5.80;2.83;;;;;;;;;;4917388;29;20095;-65
2021/08/10 01:39:06;;;;;;;3.78;2.65;;;;;;;;;;4916187;29;20128;-65
2021/08/10 01:41:33;;;;;;;4.90;2.90;;;;;;;;;;4900816;29;20087;-65
2021/08/10 01:44:02;;;;;;;4.80;2.90;;;;;;;;;;4915287;29;20095;-65
2021/08/10 01:46:28;;;;;;;3.83;2.60;;;;;;;;;;4916905;29;20099;-65
2021/08/10 01:48:56;;;;;;;4.97;2.88;;;;;;;;;;4915778;29;20427;-65
2021/08/10 01:51:24;;;;;;;3.80;3.00;;;;;;;;;;4917365;29;20087;-65
2021/08/10 01:53:51;;;;;;;4.88;2.70;;;;;;;;;;4916332;29;20102;-65
2021/08/10 01:56:17;;;;;;;5.78;2.90;;;;;;;;;;4900467;29;20080;-65
2021/08/10 01:58:45;;;;;;;6.55;3.42;;;;;;;;;;4915980;29;20090;-65
2021/08/10 02:01:12;;;;;;;5.28;2.67;;;;;;;;;;4915864;29;20507;-65
2021/08/10 02:03:39;;;;;;;3.53;2.95;;;;;;;;;;4915802;29;20052;-65
2021/08/10 02:06:06;;;;;;;6.95;3.25;;;;;;;;;;4915826;29;20091;-65
2021/08/10 02:08:33;;;;;;;5.55;3.10;;;;;;;;;;4916996;29;20048;-65
2021/08/10 02:11:00;;;;;;;4.75;2.85;;;;;;;;;;4916638;29;20056;-65
2021/08/10 02:13:27;;;;;;;3.05;2.70;;;;;;;;;;4915843;29;20130;-65
2021/08/10 02:15:53;;;;;;;3.63;2.63;;;;;;;;;;4915501;29;20599;-65
2021/08/10 02:18:20;;;;;;;5.57;2.83;;;;;;;;;;4915657;29;20060;-65
2021/08/10 02:20:47;;;;;;;4.35;3.22;;;;;;;;;;4916626;29;20517;-65
2021/08/10 02:23:15;;;;;;;4.65;3.10;;;;;;;;;;4917006;29;20052;-65
2021/08/10 02:25:43;;;;;;;8.45;2.80;;;;;;;;;;4916523;29;20448;-65
2021/08/10 02:28:10;;;;;;;6.68;2.80;;;;;;;;;;4899769;29;20545;-65
2021/08/10 02:30:37;;;;;;;5.53;3.25;;;;;;;;;;4915261;29;20091;-65
2021/08/10 02:33:06;;;;;;;4.53;2.67;;;;;;;;;;4899518;29;20091;-65
2021/08/10 02:35:33;;;;;;;5.15;2.92;;;;;;;;;;4900094;29;20048;-65
2021/08/10 02:38:03;;;;;;;3.20;2.90;;;;;;;;;;4916370;29;20079;-65
2021/08/10 02:40:30;;;;;;;6.68;3.97;;;;;;;;;;4915222;29;20052;-65
2021/08/10 02:42:58;;;;;;;5.05;2.55;;;;;;;;;;4915555;29;20139;-65
2021/08/10 02:45:25;;;;;;;4.03;2.67;;;;;;;;;;4934193;29;20167;-65
2021/08/10 02:47:55;;;;;;;5.13;3.00;;;;;;;;;;4935218;29;20574;-65
2021/08/10 02:50:23;;;;;;;4.38;3.40;;;;;;;;;;4935102;29;20148;-65
2021/08/10 02:52:50;;;;;;;3.40;2.88;;;;;;;;;;4935037;29;20094;-65
2021/08/10 02:55:19;;;;;;;4.50;2.97;;;;;;;;;;4934453;29;20048;-65
2021/08/10 02:58:10;;;;;;;4.15;3.10;;;;;;;;;;4935047;29;20426;-65
2021/08/10 03:01:02;;;;;;;3.67;2.60;;;;;;;;;;4934921;29;20082;-65
2021/08/10 03:03:30;;;;;;;4.57;2.80;;;;;;;;;;4933159;29;20051;-65
2021/08/10 03:05:58;;;;;;;5.97;3.42;;;;;;;;;;4934832;29;20119;-65
2021/08/10 03:08:31;;;;;;;3.38;2.63;;;;;;;;;;4933672;29;20051;-65
2021/08/10 03:10:58;;;;;;;7.07;3.05;;;;;;;;;;4933498;29;20090;-65
2021/08/10 03:13:25;;;;;;;5.40;2.55;;;;;;;;;;4930210;29;20079;-65
2021/08/10 03:15:53;;;;;;;4.72;3.35;;;;;;;;;;4899045;29;20052;-65
2021/08/10 03:18:21;;;;;;;5.63;2.97;;;;;;;;;;4899187;29;20052;-66
2021/08/10 03:20:47;;;;;;;7.00;2.90;;;;;;;;;;4901219;29;20961;-66
2021/08/10 03:23:15;;;;;;;4.88;3.40;;;;;;;;;;4917814;29;20582;-65
2021/08/10 03:25:43;;;;;;;4.13;3.38;;;;;;;;;;4917901;29;20507;-65
2021/08/10 03:28:12;;;;;;;3.35;2.67;;;;;;;;;;4917985;29;20056;-64
2021/08/10 03:30:39;;;;;;;4.60;2.78;;;;;;;;;;4917787;29;20110;-64
2021/08/10 03:33:06;;;;;;;4.07;3.13;;;;;;;;;;4917639;29;20052;-64
2021/08/10 03:35:32;;;;;;;3.63;2.70;;;;;;;;;;4933456;29;20098;-64
2021/08/10 03:37:59;;;;;;;3.60;2.83;;;;;;;;;;4940607;29;20086;-65
2021/08/10 03:40:25;;;;;;;5.55;2.83;;;;;;;;;;4953619;28;20232;-65
2021/08/10 03:42:52;;;;;;;4.47;3.22;;;;;;;;;;4933193;29;20052;-65
2021/08/10 03:45:22;;;;;;;5.63;4.22;;;;;;;;;;4917684;29;20525;-65
2021/08/10 03:47:48;;;;;;;6.18;2.75;;;;;;;;;;4934544;29;20099;-64
2021/08/10 03:50:15;;;;;;;4.25;3.15;;;;;;;;;;4933003;29;20511;-65
2021/08/10 03:52:42;;;;;;;3.60;2.75;;;;;;;;;;4933259;29;20118;-65
2021/08/10 03:55:09;;;;;;;8.38;3.00;;;;;;;;;;4933171;29;20087;-64
2021/08/10 03:57:36;;;;;;;7.47;3.72;;;;;;;;;;4933271;29;20083;-64
2021/08/10 04:00:04;;;;;;;4.07;3.45;;;;;;;;;;4917309;29;20079;-65
2021/08/10 04:02:31;;;;;;;4.95;3.42;;;;;;;;;;4934382;29;20055;-64
2021/08/10 04:04:58;;;;;;;4.53;3.15;;;;;;;;;;4933080;28;20631;-64
2021/08/10 04:07:26;;;;;;;3.17;2.85;;;;;;;;;;4929218;29;20079;-64
2021/08/10 04:09:53;;;;;;;3.85;2.88;;;;;;;;;;4917633;29;20504;-65
2021/08/10 04:12:20;;;;;;;4.50;2.88;;;;;;;;;;4918019;29;20083;-65
2021/08/10 04:14:46;;;;;;;4.50;3.60;;;;;;;;;;4917749;29;20107;-65
2021/08/10 04:17:13;;;;;;;10.52;3.63;;;;;;;;;;4918243;29;20499;-65
2021/08/10 04:19:47;;;;;;;4.90;3.30;;;;;;;;;;4917756;29;20127;-65
2021/08/10 04:22:14;;;;;;;5.43;3.15;;;;;;;;;;4918987;29;20094;-65
2021/08/10 04:24:40;;;;;;;8.55;3.55;;;;;;;;;;4918418;29;20087;-65
2021/08/10 04:27:07;;;;;;;6.15;3.42;;;;;;;;;;4920890;29;20567;-65
2021/08/10 04:29:34;;;;;;;3.80;3.10;;;;;;;;;;4923929;29;20136;-65
2021/08/10 04:32:00;;;;;;;5.45;2.90;;;;;;;;;;4918460;29;20131;-65
2021/08/10 04:34:27;;;;;;;5.68;2.88;;;;;;;;;;4918617;29;20092;-65
2021/08/10 04:36:53;;;;;;;5.07;2.70;;;;;;;;;;4918738;29;20083;-65
2021/08/10 04:39:20;;;;;;;7.60;3.33;;;;;;;;;;4937539;29;20079;-64
2021/08/10 04:41:46;;;;;;;5.05;2.58;;;;;;;;;;4937280;29;20091;-65
2021/08/10 04:44:13;;;;;;;5.32;3.05;;;;;;;;;;4937600;29;20139;-65
2021/08/10 04:46:39;;;;;;;3.83;2.80;;;;;;;;;;4937390;29;20118;-65
2021/08/10 04:49:06;;;;;;;4.95;2.60;;;;;;;;;;4937195;29;20074;-64
2021/08/10 04:51:33;;;;;;;3.58;2.80;;;;;;;;;;4936035;29;20472;-65
2021/08/10 04:53:59;;;;;;;3.42;2.42;;;;;;;;;;4937237;29;20087;-65
2021/08/10 04:56:26;;;;;;;5.07;2.78;;;;;;;;;;4937475;29;20135;-64
2021/08/10 04:58:52;;;;;;;4.45;2.90;;;;;;;;;;4921761;29;20564;-64
2021/08/10 05:01:19;;;;;;;4.72;2.88;;;;;;;;;;4918257;29;20091;-65
2021/08/10 05:03:46;;;;;;;5.50;3.15;;;;;;;;;;4918047;29;20052;-65
2021/08/10 05:06:12;;;;;;;5.03;2.88;;;;;;;;;;4918000;29;20185;-65
2021/08/10 05:08:39;;;;;;;5.22;3.38;;;;;;;;;;4917851;29;20523;-65
2021/08/10 05:11:12;;;;;;;7.15;3.10;;;;;;;;;;4917621;29;20092;-64
2021/08/10 05:13:39;;;;;;;6.43;3.10;;;;;;;;;;4917875;29;20055;-65
2021/08/10 05:16:06;;;;;;;6.78;3.08;;;;;;;;;;4917851;29;20052;-65
2021/08/10 05:18:33;;;;;;;6.70;3.25;;;;;;;;;;4916668;29;20052;-65
2021/08/10 05:20:59;;;;;;;3.60;2.45;;;;;;;;;;4917589;29;20132;-65
2021/08/10 05:23:26;;;;;;;7.35;2.92;;;;;;;;;;4917616;29;20094;-65
2021/08/10 05:25:53;;;;;;;5.53;3.35;;;;;;;;;;4917533;29;20423;-65
2021/08/10 05:28:19;;;;;;;3.63;2.67;;;;;;;;;;4917805;29;20102;-66
2021/08/10 05:30:46;;;;;;;3.38;2.60;;;;;;;;;;4917342;29;20119;-64
2021/08/10 05:33:12;;;;;;;4.80;3.08;;;;;;;;;;4917604;29;20085;-65
2021/08/10 05:35:39;;;;;;;3.85;2.92;;;;;;;;;;4917789;29;20490;-65
2021/08/10 05:38:05;;;;;;;3.63;2.40;;;;;;;;;;4925706;29;20084;-65
2021/08/10 05:40:34;;;;;;;5.18;2.50;;;;;;;;;;4936362;29;20467;-65
2021/08/10 05:43:01;;;;;;;6.85;2.88;;;;;;;;;;4936302;29;20492;-65
2021/08/10 05:45:28;;;;;;;3.35;2.63;;;;;;;;;;4936452;29;20079;-65
2021/08/10 05:47:54;;;;;;;6.13;3.15;;;;;;;;;;4936323;29;20079;-65
2021/08/10 05:50:21;;;;;;;5.90;3.10;;;;;;;;;;4936202;29;20478;-65
2021/08/10 05:52:47;;;;;;;4.47;2.70;;;;;;;;;;4936102;29;20083;-65
2021/08/10 05:55:14;;;;;;;6.25;3.00;;;;;;;;;;4936194;29;20052;-65
2021/08/10 05:57:41;;;;;;;5.35;3.40;;;;;;;;;;4936091;29;20079;-65
2021/08/10 06:00:08;;;;;;;6.40;2.80;;;;;;;;;;4935941;29;20116;-65
2021/08/10 06:02:35;;;;;;;4.50;2.67;;;;;;;;;;4936069;29;20101;-65
2021/08/10 06:05:03;;;;;;;7.30;3.72;;;;;;;;;;4935871;29;20071;-65
2021/08/10 06:07:30;;;;;;;6.18;2.72;;;;;;;;;;4936060;29;20115;-65
2021/08/10 06:09:56;;;;;;;5.57;2.78;;;;;;;;;;4933013;29;20126;-65
2021/08/10 06:12:23;;;;;;;5.35;3.00;;;;;;;;;;4933896;29;20487;-66
2021/08/10 06:14:49;;;;;;;4.60;2.88;;;;;;;;;;4933795;29;20531;-65
2021/08/10 06:17:16;;;;;;;5.20;2.92;;;;;;;;;;4933950;29;20064;-71
2021/08/10 06:19:43;;;;;;;4.15;2.97;;;;;;;;;;4932528;29;20130;-71
2021/08/10 06:22:09;;;;;;;4.82;2.75;;;;;;;;;;4933128;29;20094;-71
2021/08/10 06:24:36;;;;;;;3.95;2.95;;;;;;;;;;4933681;29;20529;-71
2021/08/10 06:27:03;;;;;;;4.43;3.28;;;;;;;;;;4933240;29;20138;-71
2021/08/10 06:29:29;;;;;;;3.95;3.05;;;;;;;;;;4933562;29;20091;-71
2021/08/10 06:31:56;;;;;;;4.22;3.03;;;;;;;;;;4933419;29;20098;-72
2021/08/10 06:34:22;;;;;;;4.55;2.78;;;;;;;;;;4933156;29;20098;-71
2021/08/10 06:36:49;;;;;;;6.07;2.95;;;;;;;;;;4933273;29;20424;-71
2021/08/10 06:39:15;;;;;;;4.70;2.80;;;;;;;;;;4933503;29;20082;-71
2021/08/10 06:41:42;;;;;;;5.38;3.00;;;;;;;;;;4933390;29;20575;-71
2021/08/10 06:44:08;;;;;;;5.15;3.00;;;;;;;;;;4933568;29;20400;-71
2021/08/10 06:46:35;;;;;;;5.53;3.20;;;;;;;;;;4925701;29;20167;-71
2021/08/10 06:49:02;;;;;;;5.95;3.00;;;;;;;;;;4913591;29;20098;-72
2021/08/10 06:51:29;;;;;;;6.28;3.63;;;;;;;;;;4914447;29;20106;-71
2021/08/10 06:53:55;;;;;;;6.03;3.15;;;;;;;;;;4914162;29;20538;-72
2021/08/10 06:56:22;;;;;;;5.55;3.20;;;;;;;;;;4914420;29;20095;-71
2021/08/10 06:58:49;;;;;;;4.53;2.80;;;;;;;;;;4914278;29;20208;-72
2021/08/10 07:01:20;;;;;;;6.40;2.83;;;;;;;;;;4914035;29;20044;-71
2021/08/10 07:03:48;;;;;;;4.38;2.88;;;;;;;;;;4914023;29;20056;-71
2021/08/10 07:06:14;;;;;;;4.88;3.20;;;;;;;;;;4913983;29;20051;-72
2021/08/10 07:08:41;;;;;;;6.05;3.53;;;;;;;;;;4914076;29;20104;-70
2021/08/10 07:11:08;;;;;;;9.75;3.38;;;;;;;;;;4913857;29;20579;-72
2021/08/10 07:13:35;;;;;;;5.95;3.05;;;;;;;;;;4913547;29;20587;-72
2021/08/10 07:16:02;;;;;;;4.72;3.17;;;;;;;;;;4915495;29;20106;-70
2021/08/10 07:18:29;;;;;;;8.07;2.70;;;;;;;;;;4921085;29;20060;-65
2021/08/10 07:20:55;;;;;;;5.03;2.58;;;;;;;;;;4925324;29;20186;-64
2021/08/10 07:23:22;;;;;;;4.47;2.42;;;;;;;;;;4920624;29;20102;-64
2021/08/10 07:25:49;;;;;;;6.97;2.60;;;;;;;;;;4919955;29;20084;-63
2021/08/10 07:28:16;;;;;;;5.60;2.67;;;;;;;;;;4922105;29;20051;-72
2021/08/10 07:30:44;;;;;;;6.70;2.55;;;;;;;;;;4924950;29;20047;-72
2021/08/10 07:33:10;;;;;;;4.78;2.67;;;;;;;;;;4919060;29;20131;-70
2021/08/10 07:35:37;;;;;;;4.32;2.72;;;;;;;;;;4914525;29;20416;-63
2021/08/10 07:38:03;;;;;;;7.90;3.30;;;;;;;;;;4923146;29;20098;-64
2021/08/10 07:40:30;;;;;;;5.85;3.25;;;;;;;;;;4923705;29;20086;-63
2021/08/10 07:42:57;;;;;;;5.45;2.45;;;;;;;;;;4922038;29;20127;-63
2021/08/10 07:45:24;;;;;;;5.05;2.80;;;;;;;;;;4914908;29;20075;-70
2021/08/10 07:47:51;;;;;;;5.60;2.58;;;;;;;;;;4928445;23;20045;-69
2021/08/10 07:50:19;;;;;;;5.13;2.20;;;;;;;;;;4898530;29;20053;-70
2021/08/10 07:52:48;;;;;;;5.32;2.55;;;;;;;;;;4896473;29;20053;-70
2021/08/10 07:55:15;;;;;;;6.85;2.28;;;;;;;;;;4890788;29;20527;-70
2021/08/10 07:57:42;;;;;;;2.75;1.75;;;;;;;;;;4883760;29;20093;-70
2021/08/10 08:00:09;;;;;;;2.40;1.83;;;;;;;;;;4885608;29;20112;-68
2021/08/10 08:02:36;;;;;;;3.90;2.10;;;;;;;;;;4884542;29;20076;-69
2021/08/10 08:05:03;;;;;;;5.07;2.25;;;;;;;;;;4885612;29;20139;-66
2021/08/10 08:07:31;;;;;;;2.95;1.98;;;;;;;;;;4885222;29;20156;-65
2021/08/10 08:09:57;;;;;;;4.80;1.63;;;;;;;;;;4882255;29;20104;-67
2021/08/10 08:12:24;;;;;;;2.63;1.50;;;;;;;;;;4884583;29;20045;-65
2021/08/10 08:14:50;;;;;;;3.35;1.75;;;;;;;;;;4891009;29;20080;-65
2021/08/10 08:17:17;;;;;;;6.63;2.55;;;;;;;;;;4885026;29;20056;-64
2021/08/10 08:19:44;;;;;;;3.67;2.17;;;;;;;;;;4884958;29;20081;-66
2021/08/10 08:22:10;;;;;;;4.20;2.13;;;;;;;;;;4884463;29;20084;-65
2021/08/10 08:24:37;;;;;;;4.07;2.35;;;;;;;;;;4885321;29;20132;-65
2021/08/10 08:27:03;;;;;;;2.60;1.98;;;;;;;;;;4887208;29;20056;-65
2021/08/10 08:29:30;;;;;;;6.38;2.00;;;;;;;;;;4883708;29;20128;-66
2021/08/10 08:31:56;;;;;;;3.35;1.95;;;;;;;;;;4885784;29;20104;-65
2021/08/10 08:34:24;;;;;;;3.53;2.00;;;;;;;;;;4883959;29;20056;-66
2021/08/10 08:36:50;;;;;;;3.47;2.00;;;;;;;;;;4884607;29;20095;-65
2021/08/10 08:39:17;;;;;;;4.55;2.05;;;;;;;;;;4882642;29;20091;-65
2021/08/10 08:41:44;;;;;;;3.92;1.80;;;;;;;;;;4883374;29;20101;-65
2021/08/10 08:44:10;;;;;;;4.13;2.03;;;;;;;;;;4887150;29;20087;-65
2021/08/10 08:46:37;;;;;;;6.03;1.73;;;;;;;;;;4883158;29;20108;-65
2021/08/10 08:49:04;;;;;;;4.72;1.80;;;;;;;;;;4871199;29;20148;-65
2021/08/10 08:51:30;;;;;;;3.05;1.90;;;;;;;;;;4881398;29;20095;-65
2021/08/10 08:53:57;;;;;;;5.97;2.00;;;;;;;;;;4888925;29;20104;-65
2021/08/10 08:56:24;;;;;;;4.07;1.95;;;;;;;;;;4888822;29;20511;-65
2021/08/10 08:58:55;;;;;;;2.50;1.83;;;;;;;;;;4889705;29;20089;-65
2021/08/10 09:01:21;;;;;;;7.03;2.53;;;;;;;;;;4886156;29;20576;-65
2021/08/10 09:03:48;;;;;;;4.93;1.90;;;;;;;;;;4886111;29;20437;-65
2021/08/10 09:06:15;;;;;;;3.17;1.83;;;;;;;;;;4886191;29;20095;-65
2021/08/10 09:08:42;;;;;;;6.32;1.92;;;;;;;;;;4878118;29;20053;-65
2021/08/10 09:11:17;;;;;;;4.68;2.15;;;;;;;;;;4887181;29;20096;-65
2021/08/10 09:14:01;;;;;;;2.65;1.65;;;;;;;;;;4885868;29;20116;-65
2021/08/10 09:16:28;;;;;;;3.00;1.85;;;;;;;;;;4891742;29;20052;-65
2021/08/10 09:18:55;;;;;;;3.08;1.70;;;;;;;;;;4886461;29;20096;-65
2021/08/10 09:21:23;;;;;;;4.15;1.95;;;;;;;;;;4888704;29;20095;-65
2021/08/10 09:23:51;;;;;;;4.90;2.50;;;;;;;;;;4887076;29;20091;-65
2021/08/10 09:26:20;;;;;;;5.18;1.88;;;;;;;;;;4885494;29;20053;-65
2021/08/10 09:28:47;;;;;;;2.97;1.73;;;;;;;;;;4887648;29;20226;-65
2021/08/10 09:31:39;;;;;;;2.15;1.88;;;;;;;;;;4885216;29;20081;-65
2021/08/10 09:34:06;;;;;;;5.00;2.10;;;;;;;;;;4884801;29;20075;-65
2021/08/10 09:36:34;;;;;;;3.38;1.92;;;;;;;;;;4889857;29;20088;-65
2021/08/10 09:39:01;;;;;;;1.73;1.55;;;;;;;;;;4885157;29;20587;-65
2021/08/10 09:41:28;;;;;;;4.43;1.70;;;;;;;;;;4886869;29;20128;-65
2021/08/10 09:44:17;;;;;;;4.78;1.80;;;;;;;;;;4885283;29;20049;-65
2021/08/10 09:46:46;;;;;;;3.42;1.80;;;;;;;;;;4885192;29;20061;-65
2021/08/10 09:49:13;;;;;;;3.97;1.77;;;;;;;;;;4886557;29;20522;-65
2021/08/10 09:51:46;;;;;;;4.45;1.60;;;;;;;;;;4885471;29;20088;-65
2021/08/10 09:54:14;;;;;;;6.68;1.63;;;;;;;;;;4890266;29;20136;-65
2021/08/10 09:56:52;;;;;;;4.40;1.38;;;;;;;;;;4885959;29;20464;-65
2021/08/10 09:59:22;;;;;;;2.65;1.45;;;;;;;;;;4887306;29;20088;-65
2021/08/10 10:01:55;;;;;;;2.95;2.20;;;;;;;;;;4887087;29;20080;-67
2021/08/10 10:04:27;;;;;;;4.32;1.60;;;;;;;;;;4884973;29;20127;-65
2021/08/10 10:06:55;;;;;;;7.85;2.28;;;;;;;;;;4884928;29;20365;-65
2021/08/10 10:09:23;;;;;;;2.50;1.45;;;;;;;;;;4886616;29;20564;-65
2021/08/10 10:11:53;;;;;;;3.53;1.95;;;;;;;;;;4885860;29;20084;-66
2021/08/10 10:14:21;;;;;;;7.38;1.95;;;;;;;;;;4889203;29;20193;-65
2021/08/10 10:16:50;;;;;;;5.03;1.92;;;;;;;;;;4894253;29;20048;-65
2021/08/10 10:19:17;;;;;;;4.35;1.70;;;;;;;;;;4897686;29;20508;-65
2021/08/10 10:21:52;;;;;;;6.65;2.13;;;;;;;;;;4890735;29;20504;-65
2021/08/10 10:24:20;;;;;;;4.47;2.00;;;;;;;;;;4879304;29;20092;-65
2021/08/10 10:26:53;;;;;;;5.00;2.20;;;;;;;;;;4878984;29;20092;-64
2021/08/10 10:29:20;;;;;;;5.18;1.70;;;;;;;;;;4879083;29;20089;-65
2021/08/10 10:31:46;;;;;;;3.63;1.92;;;;;;;;;;4877717;29;20088;-65
2021/08/10 10:34:13;;;;;;;6.10;1.92;;;;;;;;;;4879099;29;20060;-65
2021/08/10 10:36:43;;;;;;;2.47;1.63;;;;;;;;;;4879155;29;20076;-65
2021/08/10 10:39:10;;;;;;;4.03;1.73;;;;;;;;;;4878714;29;20053;-65
2021/08/10 10:41:37;;;;;;;5.10;1.90;;;;;;;;;;4877817;29;20504;-65
2021/08/10 10:44:06;;;;;;;4.15;1.70;;;;;;;;;;4875125;29;20499;-66
2021/08/10 10:46:37;;;;;;;2.42;1.92;;;;;;;;;;4876965;29;20471;-67
2021/08/10 10:49:05;;;;;;;3.10;1.90;;;;;;;;;;4876620;29;20145;-65
2021/08/10 10:51:34;;;;;;;4.43;1.70;;;;;;;;;;4881011;29;20094;-66
2021/08/10 10:54:27;;;;;;;4.72;2.08;;;;;;;;;;4895361;29;20352;-66
2021/08/10 10:56:58;;;;;;;3.83;1.98;;;;;;;;;;4894671;29;20084;-65
2021/08/10 10:59:33;;;;;;;6.50;2.00;;;;;;;;;;4895253;29;20057;-66
2021/08/10 11:02:18;;;;;;;4.82;1.85;;;;;;;;;;4887446;29;20049;-66
2021/08/10 11:05:26;;;;;;;6.38;2.10;;;;;;;;;;4876452;29;20053;-65
2021/08/10 11:07:54;;;;;;;5.03;2.22;;;;;;;;;;4876467;29;20103;-65
2021/08/10 11:10:35;;;;;;;4.53;1.63;;;;;;;;;;4875947;29;20264;-66
2021/08/10 11:13:04;;;;;;;4.05;1.90;;;;;;;;;;4876333;29;20140;-65
2021/08/10 11:15:46;;;;;;;2.63;1.77;;;;;;;;;;4876418;29;20096;-65
2021/08/10 11:18:12;;;;;;;4.23;2.03;;;;;;;;;;4876393;29;20064;-65
2021/08/10 11:21:00;;;;;;;3.30;2.17;;;;;;;;;;4876117;29;20297;-68
2021/08/10 11:23:26;;;;;;;2.97;1.65;;;;;;;;;;4869059;29;20085;-66
2021/08/10 11:25:59;;;;;;;2.72;1.50;;;;;;;;;;4892498;29;20178;-65
2021/08/10 11:28:30;;;;;;;;;;;;;;;;;;4894199;29;20053;-65
2021/08/10 11:30:58;;;;;;;3.95;1.70;;;;;;;;;;4890175;29;19924;-65
2021/08/10 11:33:33;;;;;;;2.70;1.40;;;;;;;;;;4884996;29;20041;-65
2021/08/10 11:36:12;;;;;;;2.22;1.40;;;;;;;;;;4889326;29;20053;-66
2021/08/10 11:38:47;;;;;;;3.58;1.63;;;;;;;;;;4885095;29;20048;-66
2021/08/10 11:41:29;;;;;;;4.00;1.75;;;;;;;;;;4884855;29;20561;-66
2021/08/10 11:44:01;;;;;;;4.38;2.08;;;;;;;;;;4883360;29;20073;-65
2021/08/10 11:46:38;;;;;;;5.22;1.90;;;;;;;;;;4884905;29;20444;-66
2021/08/10 11:49:06;;;;;;;7.40;1.70;;;;;;;;;;4884475;29;20841;-66
2021/08/10 11:51:39;;;;;;;3.20;2.05;;;;;;;;;;4884457;29;20076;-66
2021/08/10 11:54:32;;;;;;;3.42;1.90;;;;;;;;;;4885719;29;20061;-66
2021/08/10 11:57:03;;;;;;;4.03;1.88;;;;;;;;;;4884103;29;20128;-66
2021/08/10 11:59:30;;;;;;;3.28;2.00;;;;;;;;;;4883261;29;20088;-66
2021/08/10 12:01:59;;;;;;;5.25;1.65;;;;;;;;;;4884770;29;20124;-66
2021/08/10 12:04:30;;;;;;;4.22;1.63;;;;;;;;;;4885626;29;20508;-66
2021/08/10 12:06:58;;;;;;;5.43;1.73;;;;;;;;;;4887056;29;20057;-66
2021/08/10 12:09:38;;;;;;;4.78;2.15;;;;;;;;;;4884715;29;20053;-66
2021/08/10 12:12:07;;;;;;;6.40;2.15;;;;;;;;;;4883092;29;20524;-66
2021/08/10 12:14:34;;;;;;;5.10;1.80;;;;;;;;;;4883539;29;20496;-66
2021/08/10 12:17:02;;;;;;;3.55;1.73;;;;;;;;;;4883707;29;20045;-66
2021/08/10 12:19:43;;;;;;;3.65;1.90;;;;;;;;;;4885744;29;20567;-66
2021/08/10 12:22:18;;;;;;;3.55;1.70;;;;;;;;;;4887023;29;20048;-66
2021/08/10 12:24:46;;;;;;;3.60;1.33;;;;;;;;;;4884916;29;20171;-66
2021/08/10 12:27:14;;;;;;;3.22;1.60;;;;;;;;;;4884614;29;20053;-66
2021/08/10 12:29:48;;;;;;;5.05;1.85;;;;;;;;;;4886892;29;20135;-66
2021/08/10 12:32:33;;;;;;;2.67;1.80;;;;;;;;;;4886221;29;20148;-66
2021/08/10 12:35:14;;;;;;;2.45;1.60;;;;;;;;;;4891603;29;20536;-66
2021/08/10 12:37:40;;;;;;;1.67;1.23;;;;;;;;;;4891474;29;20196;-66
2021/08/10 12:40:18;;;;;;;2.65;1.33;;;;;;;;;;4889127;29;20552;-66
2021/08/10 12:42:45;;;;;;;2.90;1.73;;;;;;;;;;4889196;29;20509;-66
2021/08/10 12:45:12;;;;;;;3.80;1.73;;;;;;;;;;4890239;29;20085;-66
2021/08/10 12:47:39;;;;;;;3.40;2.13;;;;;;;;;;4888735;29;20084;-66
2021/08/10 12:50:26;;;;;;;3.47;1.60;;;;;;;;;;4887669;29;20049;-67
2021/08/10 12:52:52;;;;;;;5.25;2.67;;;;;;;;;;4888039;29;20499;-66
2021/08/10 12:55:20;;;;;;;2.60;2.05;;;;;;;;;;4886713;29;20057;-66
2021/08/10 12:57:47;;;;;;;3.22;1.80;;;;;;;;;;4887464;29;20079;-66
2021/08/10 13:00:16;;;;;;;2.95;1.80;;;;;;;;;;4887363;29;20103;-66
2021/08/10 13:02:46;;;;;;;1.98;1.50;;;;;;;;;;4891568;29;20080;-66
2021/08/10 13:05:16;;;;;;;3.50;1.60;;;;;;;;;;4885970;29;20116;-66
2021/08/10 13:07:59;;;;;;;2.25;1.48;;;;;;;;;;4887504;29;20520;-66
2021/08/10 13:10:30;;;;;;;2.55;1.55;;;;;;;;;;4889621;29;20131;-66
2021/08/10 13:12:59;;;;;;;2.50;1.40;;;;;;;;;;4885639;29;20091;-66
2021/08/10 13:15:26;;;;;;;2.92;1.48;;;;;;;;;;4887528;29;20091;-66
2021/08/10 13:17:53;;;;;;;2.50;1.70;;;;;;;;;;4888322;29;20098;-65
2021/08/10 13:20:24;;;;;;;3.08;1.58;;;;;;;;;;4884991;29;20065;-66
2021/08/10 13:22:52;;;;;;;3.13;1.47;;;;;;;;;;4889691;29;20084;-63
2021/08/10 13:25:27;;;;;;;2.28;1.52;;;;;;;;;;4889105;29;20107;-66
2021/08/10 13:28:08;;;;;;;2.92;1.40;;;;;;;;;;4885408;29;20547;-66
2021/08/10 13:30:34;;;;;;;3.30;1.30;;;;;;;;;;4889396;29;20109;-68
2021/08/10 13:33:05;;;;;;;3.03;1.95;;;;;;;;;;4886422;29;20124;-69
2021/08/10 13:35:33;;;;;;;4.10;1.80;;;;;;;;;;4887128;29;20092;-66
2021/08/10 13:38:00;;;;;;;2.83;1.52;;;;;;;;;;4884472;29;20049;-66
2021/08/10 13:40:27;;;;;;;3.40;1.85;;;;;;;;;;4889530;29;20506;-66
2021/08/10 13:42:53;;;;;;;2.78;1.85;;;;;;;;;;4884852;29;20077;-68
2021/08/10 13:45:24;;;;;;;3.05;1.40;;;;;;;;;;4889123;29;20516;-69
2021/08/10 13:47:51;;;;;;;2.90;1.67;;;;;;;;;;4920841;23;20061;-68
2021/08/10 13:50:19;;;;;;;2.22;1.27;;;;;;;;;;4945201;28;20138;-67
2021/08/10 13:52:46;;;;;;;7.13;1.95;;;;;;;;;;4945481;29;20047;-69
2021/08/10 13:55:13;;;;;;;2.78;1.52;;;;;;;;;;4925773;29;20133;-68
2021/08/10 13:57:44;;;;;;;3.15;1.58;;;;;;;;;;4942490;28;20048;-67
2021/08/10 14:00:12;;;;;;;4.28;1.58;;;;;;;;;;4922324;29;20052;-69
2021/08/10 14:02:43;;;;;;;2.03;1.33;;;;;;;;;;4924532;29;20040;-60
2021/08/10 14:05:11;;;;;;;3.83;1.50;;;;;;;;;;4922327;29;20135;-65
2021/08/10 14:07:38;;;;;;;1.83;1.17;;;;;;;;;;4924116;29;20395;-64
2021/08/10 14:10:06;;;;;;;3.75;1.33;;;;;;;;;;4921963;29;20056;-65
2021/08/10 14:12:33;;;;;;;2.53;1.42;;;;;;;;;;4925012;29;20467;-65
2021/08/10 14:15:00;;;;;;;1.83;1.27;;;;;;;;;;4924369;29;20127;-66
2021/08/10 14:17:27;;;;;;;4.07;2.33;;;;;;;;;;4923508;29;20051;-64
2021/08/10 14:19:54;;;;;;;1.98;1.55;;;;;;;;;;4922250;29;20055;-63
2021/08/10 14:22:20;;;;;;;5.25;2.15;;;;;;;;;;4922527;29;20383;-68
2021/08/10 14:24:47;;;;;;;2.30;1.30;;;;;;;;;;4922958;29;20138;-66
2021/08/10 14:27:13;;;;;;;3.20;1.58;;;;;;;;;;4920592;29;20134;-65
2021/08/10 14:29:40;;;;;;;2.15;1.50;;;;;;;;;;4924660;29;20044;-67
2021/08/10 14:32:07;;;;;;;3.22;1.70;;;;;;;;;;4926709;29;20091;-69
2021/08/10 14:34:33;;;;;;;2.35;1.48;;;;;;;;;;4927770;29;20079;-67
2021/08/10 14:37:00;;;;;;;2.70;1.30;;;;;;;;;;4926859;29;20047;-69
2021/08/10 14:39:27;;;;;;;2.13;1.30;;;;;;;;;;4924372;29;20048;-68
2021/08/10 14:41:53;;;;;;;2.33;1.70;;;;;;;;;;4922113;29;20068;-66
2021/08/10 14:44:20;;;;;;;2.60;1.73;;;;;;;;;;4923565;29;20570;-68
2021/08/10 14:46:46;;;;;;;3.30;1.50;;;;;;;;;;4920558;29;20076;-67
2021/08/10 14:49:13;;;;;;;3.22;1.92;;;;;;;;;;4922769;29;20083;-69
2021/08/10 14:51:39;;;;;;;6.40;1.50;;;;;;;;;;4921999;29;20062;-68
2021/08/10 14:54:06;;;;;;;2.10;1.50;;;;;;;;;;4923356;29;20083;-63